Time;durP1;ratioP1;P1;durP2;ratioP2;P2;SDS_P1;SDS_P2;PMS_P1;PMS_P2;Temp;Humidity;BMP_temperature;BMP_pressure;BME280_temperature;BME280_humidity;BME280_pressure;Samples;Min_cycle;Max_cycle;Signal;HPM_P1;HPM_P2
2024/01/01 00:00:12;;;;;;;40.00;20.05;;;9.80;99.90;;;;;;5053859;28;20029;-63
2024/01/01 00:02:38;;;;;;;34.05;16.67;;;9.80;99.90;;;;;;5053674;28;20026;-64
2024/01/01 00:05:03;;;;;;;30.42;14.63;;;9.80;99.90;;;;;;5053855;28;20034;-63
2024/01/01 00:07:29;;;;;;;26.55;13.45;;;9.80;99.90;;;;;;5053748;28;20037;-63
2024/01/01 00:09:55;;;;;;;26.23;13.05;;;9.80;99.90;;;;;;5053595;28;20029;-64
2024/01/01 00:12:20;;;;;;;23.67;11.23;;;9.80;99.90;;;;;;5053531;28;20024;-64
2024/01/01 00:14:46;;;;;;;21.00;10.73;;;9.80;99.90;;;;;;5053849;28;20030;-63
2024/01/01 00:17:13;;;;;;;22.27;9.77;;;9.80;99.90;;;;;;5052292;28;20030;-64
2024/01/01 00:19:39;;;;;;;17.52;9.60;;;9.80;99.90;;;;;;5052473;28;20021;-63
2024/01/01 00:22:05;;;;;;;20.80;9.80;;;9.80;99.90;;;;;;5052238;28;20025;-63
2024/01/01 00:24:30;;;;;;;18.33;8.23;;;9.80;99.90;;;;;;5053412;28;20037;-63
2024/01/01 00:26:56;;;;;;;13.55;6.78;;;9.80;99.90;;;;;;5053361;28;20059;-64
2024/01/01 00:29:22;;;;;;;14.95;7.00;;;9.80;99.90;;;;;;5053350;28;20045;-64
2024/01/01 00:31:47;;;;;;;16.13;5.95;;;9.70;99.90;;;;;;5052972;28;20053;-64
2024/01/01 00:34:13;;;;;;;14.27;5.43;;;9.70;99.90;;;;;;5053369;28;20036;-64
2024/01/01 00:36:38;;;;;;;11.10;4.88;;;9.80;99.90;;;;;;5053293;28;20077;-63
2024/01/01 00:39:04;;;;;;;6.40;2.65;;;9.70;99.90;;;;;;5053099;28;20040;-65
2024/01/01 00:41:30;;;;;;;4.28;1.92;;;9.70;99.90;;;;;;5053231;28;20018;-65
2024/01/01 00:43:55;;;;;;;6.57;2.05;;;9.60;99.90;;;;;;5053151;28;20484;-64
2024/01/01 00:46:21;;;;;;;11.55;1.70;;;9.60;99.90;;;;;;5053101;28;20051;-64
2024/01/01 00:48:46;;;;;;;7.22;1.58;;;9.50;99.90;;;;;;5052921;28;20475;-63
2024/01/01 00:51:12;;;;;;;6.57;1.75;;;9.50;99.90;;;;;;5052999;28;20022;-63
2024/01/01 00:53:38;;;;;;;4.28;1.52;;;9.40;99.90;;;;;;5052888;28;20032;-64
2024/01/01 00:56:04;;;;;;;3.58;1.50;;;9.30;99.90;;;;;;5052859;28;20022;-64
2024/01/01 00:58:29;;;;;;;4.72;1.52;;;9.30;99.90;;;;;;5052808;28;20115;-64
2024/01/01 01:00:58;;;;;;;3.22;1.15;;;9.20;99.90;;;;;;5052608;28;20066;-64
2024/01/01 01:03:23;;;;;;;5.55;1.92;;;9.10;99.90;;;;;;5052730;28;20061;-64
2024/01/01 01:05:49;;;;;;;4.03;1.80;;;9.00;99.90;;;;;;5051873;28;20034;-63
2024/01/01 01:08:14;;;;;;;2.97;1.80;;;8.90;99.90;;;;;;5052574;28;20066;-63
2024/01/01 01:10:40;;;;;;;3.35;1.35;;;8.90;99.90;;;;;;5052591;28;20030;-64
2024/01/01 01:13:05;;;;;;;3.15;1.73;;;8.80;99.90;;;;;;5051681;28;20029;-64
2024/01/01 01:15:32;;;;;;;3.85;1.50;;;8.70;99.90;;;;;;5052580;28;20022;-64
2024/01/01 01:17:57;;;;;;;3.72;1.63;;;8.60;99.90;;;;;;5052599;28;20042;-64
2024/01/01 01:20:23;;;;;;;6.30;1.60;;;8.60;99.90;;;;;;5052298;28;20045;-64
2024/01/01 01:22:49;;;;;;;6.00;1.95;;;8.60;99.90;;;;;;5052337;28;20033;-63
2024/01/01 01:25:14;;;;;;;3.00;0.90;;;8.50;99.90;;;;;;5052366;28;20097;-64
2024/01/01 01:27:43;;;;;;;2.90;1.23;;;8.40;99.90;;;;;;5052293;28;20036;-64
2024/01/01 01:30:09;;;;;;;4.82;1.70;;;8.30;99.90;;;;;;5052326;28;20085;-65
2024/01/01 01:32:35;;;;;;;2.70;1.45;;;8.30;99.90;;;;;;5052028;28;20064;-64
2024/01/01 01:35:01;;;;;;;2.25;1.00;;;8.30;99.90;;;;;;5052279;28;20022;-64
2024/01/01 01:37:26;;;;;;;3.88;1.10;;;8.30;99.90;;;;;;5052220;28;20083;-63
2024/01/01 01:39:52;;;;;;;4.55;1.30;;;8.20;99.90;;;;;;5051168;28;20030;-64
2024/01/01 01:42:17;;;;;;;4.25;1.17;;;8.20;99.90;;;;;;5052240;28;20048;-64
2024/01/01 01:44:43;;;;;;;4.30;1.38;;;8.20;99.90;;;;;;5052078;28;20064;-64
2024/01/01 01:47:11;;;;;;;3.75;1.13;;;8.20;99.90;;;;;;5051180;28;20022;-63
2024/01/01 01:49:36;;;;;;;2.47;1.02;;;8.20;99.90;;;;;;5052092;28;20017;-66
2024/01/01 01:52:03;;;;;;;5.75;1.25;;;8.20;99.90;;;;;;5052078;28;20120;-64
2024/01/01 01:54:33;;;;;;;4.50;1.25;;;8.30;99.90;;;;;;5052040;28;20089;-65
2024/01/01 01:56:59;;;;;;;5.75;1.30;;;8.30;99.90;;;;;;5051993;28;20029;-63
2024/01/01 01:59:25;;;;;;;5.47;1.30;;;8.30;99.90;;;;;;5051961;28;20030;-63
2024/01/01 02:01:51;;;;;;;4.95;1.58;;;8.30;99.90;;;;;;5051904;28;20025;-64
2024/01/01 02:04:17;;;;;;;4.45;1.30;;;8.30;99.90;;;;;;5051962;28;20022;-63
2024/01/01 02:06:45;;;;;;;7.38;1.73;;;8.30;99.90;;;;;;5051901;28;20504;-64
2024/01/01 02:09:10;;;;;;;7.15;2.13;;;8.30;99.90;;;;;;5051818;28;21237;-64
2024/01/01 02:11:36;;;;;;;4.05;1.50;;;8.30;99.90;;;;;;5051955;28;20025;-64
2024/01/01 02:14:08;;;;;;;4.20;1.10;;;8.30;99.90;;;;;;5051911;28;20040;-64
2024/01/01 02:16:34;;;;;;;4.97;1.52;;;8.30;99.90;;;;;;5052335;28;20085;-63
2024/01/01 02:19:00;;;;;;;3.70;1.10;;;8.30;99.90;;;;;;5055775;28;20033;-63
2024/01/01 02:21:27;;;;;;;6.07;1.67;;;8.30;99.90;;;;;;5055723;28;20037;-63
2024/01/01 02:23:53;;;;;;;4.35;1.23;;;8.30;99.90;;;;;;5055716;28;20026;-64
2024/01/01 02:26:18;;;;;;;5.03;1.30;;;8.30;99.90;;;;;;5055667;28;20037;-63
2024/01/01 02:28:44;;;;;;;8.70;1.63;;;8.30;99.90;;;;;;5055550;28;20033;-65
2024/01/01 02:31:10;;;;;;;3.72;1.00;;;8.40;99.90;;;;;;5055231;28;20049;-64
2024/01/01 02:33:35;;;;;;;3.85;1.25;;;8.30;99.90;;;;;;5055507;28;20022;-63
2024/01/01 02:36:01;;;;;;;7.47;1.20;;;8.30;99.90;;;;;;5055517;28;20026;-64
2024/01/01 02:38:26;;;;;;;4.88;1.45;;;8.40;99.90;;;;;;5055463;28;20033;-64
2024/01/01 02:40:52;;;;;;;6.40;1.40;;;8.40;99.90;;;;;;5054563;28;20025;-64
2024/01/01 02:43:17;;;;;;;8.20;1.88;;;8.40;99.90;;;;;;5055357;28;20041;-64
2024/01/01 02:45:43;;;;;;;5.18;1.45;;;8.40;99.90;;;;;;5055267;28;20033;-64
2024/01/01 02:48:09;;;;;;;6.70;1.40;;;8.50;99.90;;;;;;5055249;28;20030;-64
2024/01/01 02:50:36;;;;;;;11.88;1.88;;;8.40;99.90;;;;;;5055214;28;20052;-64
2024/01/01 02:53:01;;;;;;;5.25;0.98;;;8.50;99.90;;;;;;5055250;28;20025;-66
2024/01/01 02:55:27;;;;;;;5.10;1.42;;;8.50;99.90;;;;;;5055079;28;20029;-64
2024/01/01 02:57:52;;;;;;;3.03;0.77;;;8.50;99.90;;;;;;5055107;28;20044;-63
2024/01/01 03:00:18;;;;;;;4.97;1.20;;;8.50;99.90;;;;;;5055061;28;20061;-63
2024/01/01 03:02:44;;;;;;;4.95;0.77;;;8.50;99.90;;;;;;5054694;28;20037;-64
2024/01/01 03:05:10;;;;;;;7.03;1.00;;;8.50;99.90;;;;;;5054876;28;20041;-64
2024/01/01 03:07:35;;;;;;;3.88;0.88;;;8.50;99.90;;;;;;5054832;28;20112;-63
2024/01/01 03:10:02;;;;;;;5.10;1.50;;;8.60;99.90;;;;;;5054912;28;20026;-63
2024/01/01 03:12:28;;;;;;;6.22;1.25;;;8.60;99.90;;;;;;5054978;28;20364;-64
2024/01/01 03:14:54;;;;;;;4.03;1.00;;;8.60;99.90;;;;;;5054772;28;20085;-64
2024/01/01 03:17:19;;;;;;;10.65;2.00;;;8.60;99.90;;;;;;5054673;28;20025;-64
2024/01/01 03:19:45;;;;;;;3.70;1.00;;;8.60;99.90;;;;;;5054547;28;20036;-64
2024/01/01 03:22:10;;;;;;;8.73;1.38;;;8.50;99.90;;;;;;5054682;28;20033;-64
2024/01/01 03:24:36;;;;;;;6.93;1.00;;;8.50;99.90;;;;;;5054642;28;20030;-63
2024/01/01 03:27:02;;;;;;;4.65;1.02;;;8.60;99.90;;;;;;5054428;28;20040;-64
2024/01/01 03:29:27;;;;;;;7.20;1.33;;;8.50;99.90;;;;;;5053491;28;20044;-64
2024/01/01 03:31:53;;;;;;;9.15;1.48;;;8.50;99.90;;;;;;5054210;28;20076;-64
2024/01/01 03:34:19;;;;;;;6.97;1.25;;;8.50;99.90;;;;;;5054401;28;20037;-64
2024/01/01 03:36:45;;;;;;;4.68;1.00;;;8.50;99.90;;;;;;5054443;28;20009;-64
2024/01/01 03:39:11;;;;;;;8.68;1.90;;;8.50;99.90;;;;;;5054367;28;20040;-64
2024/01/01 03:41:36;;;;;;;8.27;1.58;;;8.60;99.90;;;;;;5054276;28;20029;-63
2024/01/01 03:44:02;;;;;;;6.78;1.42;;;8.60;99.90;;;;;;5054260;28;20037;-64
2024/01/01 03:46:27;;;;;;;2.53;0.80;;;8.60;99.90;;;;;;5054227;28;20022;-64
2024/01/01 03:48:53;;;;;;;5.78;1.05;;;8.60;99.90;;;;;;5053059;28;20389;-64
2024/01/01 03:51:18;;;;;;;5.10;0.82;;;8.60;99.90;;;;;;5054155;28;20056;-64
2024/01/01 03:53:44;;;;;;;7.38;1.30;;;8.60;99.90;;;;;;5054080;28;20047;-64
2024/01/01 03:56:10;;;;;;;7.43;1.35;;;8.60;99.90;;;;;;5054041;28;20064;-65
2024/01/01 03:58:36;;;;;;;5.28;1.33;;;8.60;99.90;;;;;;5053073;28;20029;-64
2024/01/01 04:01:02;;;;;;;6.38;1.30;;;8.50;99.90;;;;;;5053671;28;20075;-64
2024/01/01 04:03:28;;;;;;;8.10;1.15;;;8.60;99.90;;;;;;5053882;28;20037;-63
2024/01/01 04:05:53;;;;;;;7.13;1.08;;;8.60;99.90;;;;;;5053827;28;20041;-64
2024/01/01 04:08:19;;;;;;;5.35;0.90;;;8.60;99.90;;;;;;5053801;28;20029;-63
2024/01/01 04:10:44;;;;;;;4.82;1.15;;;8.60;99.90;;;;;;5053805;28;20025;-64
2024/01/01 04:13:10;;;;;;;6.25;0.70;;;8.60;99.90;;;;;;5053824;28;20033;-63
2024/01/01 04:15:36;;;;;;;4.93;1.20;;;8.60;99.90;;;;;;5053701;28;20032;-63
2024/01/01 04:18:02;;;;;;;9.02;1.02;;;8.60;99.90;;;;;;5053621;28;20037;-63
2024/01/01 04:20:27;;;;;;;8.00;1.10;;;8.60;99.90;;;;;;5053471;28;20029;-64
2024/01/01 04:22:53;;;;;;;5.10;0.95;;;8.60;99.90;;;;;;5053557;28;20559;-63
2024/01/01 04:25:21;;;;;;;6.13;0.68;;;8.60;99.90;;;;;;5053398;28;20048;-64
2024/01/01 04:27:47;;;;;;;4.80;1.00;;;8.60;99.90;;;;;;5053337;28;20034;-64
2024/01/01 04:30:13;;;;;;;9.75;1.20;;;8.70;99.90;;;;;;5053416;28;20045;-64
2024/01/01 04:32:39;;;;;;;3.97;0.77;;;8.60;99.90;;;;;;5053038;28;20045;-64
2024/01/01 04:35:05;;;;;;;6.18;1.13;;;8.60;99.90;;;;;;5053309;28;20052;-64
2024/01/01 04:37:30;;;;;;;5.32;0.90;;;8.60;99.90;;;;;;5053204;28;20085;-63
2024/01/01 04:39:56;;;;;;;6.13;1.45;;;8.60;99.90;;;;;;5053093;28;20045;-63
2024/01/01 04:42:21;;;;;;;6.03;1.17;;;8.60;99.90;;;;;;5052306;28;20085;-63
2024/01/01 04:44:47;;;;;;;2.33;0.77;;;8.60;99.90;;;;;;5053074;28;20029;-65
2024/01/01 04:47:13;;;;;;;4.05;0.80;;;8.60;99.90;;;;;;5052994;28;20032;-63
2024/01/01 04:49:41;;;;;;;5.93;0.80;;;8.60;99.90;;;;;;5052884;28;20036;-64
2024/01/01 04:52:07;;;;;;;4.28;0.88;;;8.60;99.90;;;;;;5053053;28;20028;-63
2024/01/01 04:54:32;;;;;;;5.82;1.42;;;8.60;99.90;;;;;;5051883;28;20029;-63
2024/01/01 04:56:58;;;;;;;3.45;1.55;;;8.50;99.90;;;;;;5052895;28;20064;-63
2024/01/01 04:59:24;;;;;;;4.30;0.75;;;8.50;99.90;;;;;;5052774;28;20065;-64
2024/01/01 05:01:49;;;;;;;4.63;1.00;;;8.50;99.90;;;;;;5051713;28;20301;-63
2024/01/01 05:04:15;;;;;;;4.78;1.02;;;8.50;99.90;;;;;;5052740;28;20092;-64
2024/01/01 05:06:41;;;;;;;7.65;1.30;;;8.60;99.90;;;;;;5052818;28;20029;-63
2024/01/01 05:09:07;;;;;;;3.10;0.65;;;8.50;99.90;;;;;;5052602;28;20385;-64
2024/01/01 05:11:33;;;;;;;3.13;0.57;;;8.50;99.90;;;;;;5052773;28;20044;-64
2024/01/01 05:14:00;;;;;;;7.13;1.08;;;8.50;99.90;;;;;;5052499;28;20087;-64
2024/01/01 05:16:25;;;;;;;3.40;0.98;;;8.50;99.90;;;;;;5052626;28;20052;-64
2024/01/01 05:18:51;;;;;;;5.63;1.30;;;8.50;99.90;;;;;;5051537;28;20049;-64
2024/01/01 05:21:17;;;;;;;11.10;1.13;;;8.50;99.90;;;;;;5052522;28;20048;-64
2024/01/01 05:23:42;;;;;;;2.83;0.90;;;8.60;99.90;;;;;;5052532;28;20029;-64
2024/01/01 05:26:08;;;;;;;4.97;0.90;;;8.50;99.90;;;;;;5052359;28;20053;-66
2024/01/01 05:28:34;;;;;;;4.57;0.93;;;8.50;99.90;;;;;;5052247;28;20060;-65
2024/01/01 05:31:00;;;;;;;19.33;1.40;;;8.60;99.90;;;;;;5051988;28;20068;-64
2024/01/01 05:33:25;;;;;;;3.33;0.90;;;8.60;99.90;;;;;;5052329;28;20587;-63
2024/01/01 05:35:51;;;;;;;7.28;1.42;;;8.60;99.90;;;;;;5052427;28;20021;-64
2024/01/01 05:38:17;;;;;;;9.15;0.93;;;8.60;99.90;;;;;;5052247;28;20029;-64
2024/01/01 05:40:44;;;;;;;8.32;1.15;;;8.60;99.90;;;;;;5052173;28;20032;-64
2024/01/01 05:43:10;;;;;;;6.47;1.38;;;8.60;99.90;;;;;;5052190;28;20034;-63
2024/01/01 05:45:35;;;;;;;2.03;0.70;;;8.50;99.90;;;;;;5052088;28;20052;-64
2024/01/01 05:48:01;;;;;;;7.22;1.00;;;8.50;99.90;;;;;;5051993;28;20037;-64
2024/01/01 05:50:28;;;;;;;4.28;1.10;;;8.50;99.90;;;;;;5052146;28;20036;-64
2024/01/01 05:52:53;;;;;;;4.45;0.90;;;8.50;99.90;;;;;;5051635;28;20045;-63
2024/01/01 05:55:19;;;;;;;6.80;1.25;;;8.60;99.90;;;;;;5051944;28;20024;-64
2024/01/01 05:57:45;;;;;;;2.75;0.85;;;8.60;99.90;;;;;;5051995;28;20112;-64
2024/01/01 06:00:12;;;;;;;7.30;1.45;;;8.50;99.90;;;;;;5034655;28;20071;-64
2024/01/01 06:02:38;;;;;;;5.10;1.02;;;8.50;99.90;;;;;;5050879;28;20532;-64
2024/01/01 06:05:04;;;;;;;5.40;1.08;;;8.50;99.90;;;;;;5052051;28;20040;-64
2024/01/01 06:07:29;;;;;;;5.28;0.90;;;8.50;99.90;;;;;;5051857;28;20029;-64
2024/01/01 06:09:55;;;;;;;3.58;1.05;;;8.50;99.90;;;;;;5051954;28;20041;-64
2024/01/01 06:12:21;;;;;;;4.65;0.40;;;8.50;99.90;;;;;;5051831;28;20022;-63
2024/01/01 06:14:46;;;;;;;3.45;0.80;;;8.50;99.90;;;;;;5051873;28;20033;-64
2024/01/01 06:17:12;;;;;;;2.92;0.80;;;8.50;99.90;;;;;;5051913;28;20033;-64
2024/01/01 06:19:38;;;;;;;6.22;1.20;;;8.60;99.90;;;;;;5051721;28;20040;-65
2024/01/01 06:22:03;;;;;;;4.15;0.80;;;8.50;99.90;;;;;;5051922;28;20034;-63
2024/01/01 06:24:29;;;;;;;5.50;1.40;;;8.50;99.90;;;;;;5051779;28;20036;-64
2024/01/01 06:26:54;;;;;;;1.88;1.00;;;8.50;99.90;;;;;;5051768;28;20037;-65
2024/01/01 06:29:20;;;;;;;6.45;1.27;;;8.50;99.90;;;;;;5050673;28;20080;-64
2024/01/01 06:31:46;;;;;;;4.70;0.60;;;8.50;99.90;;;;;;5050160;28;20090;-64
2024/01/01 06:34:11;;;;;;;4.70;0.75;;;8.50;99.90;;;;;;5051729;28;20472;-63
2024/01/01 06:36:37;;;;;;;9.88;0.98;;;8.50;99.90;;;;;;5051684;28;20044;-64
2024/01/01 06:39:03;;;;;;;4.70;0.75;;;8.40;99.90;;;;;;5050803;28;20036;-63
2024/01/01 06:41:29;;;;;;;2.33;0.90;;;8.40;99.90;;;;;;5051662;28;20022;-64
2024/01/01 06:43:54;;;;;;;2.40;0.90;;;8.40;99.90;;;;;;5051571;28;20036;-63
2024/01/01 06:46:20;;;;;;;6.47;1.30;;;8.40;99.90;;;;;;5051606;28;20025;-63
2024/01/01 06:48:45;;;;;;;7.82;1.20;;;8.30;99.90;;;;;;5050543;28;20090;-64
2024/01/01 06:51:11;;;;;;;6.65;1.25;;;8.30;99.90;;;;;;5051532;28;20030;-64
2024/01/01 06:53:37;;;;;;;5.53;1.05;;;8.40;99.90;;;;;;5051531;28;20036;-64
2024/01/01 06:56:03;;;;;;;5.25;1.40;;;8.40;99.90;;;;;;5051555;28;20029;-64
2024/01/01 06:58:29;;;;;;;4.07;0.93;;;8.40;99.90;;;;;;5051548;28;20037;-63
2024/01/01 07:00:54;;;;;;;10.00;1.25;;;8.40;99.90;;;;;;5051351;28;20041;-63
2024/01/01 07:03:20;;;;;;;9.10;1.33;;;8.40;99.90;;;;;;5051627;28;20040;-63
2024/01/01 07:05:46;;;;;;;6.72;0.90;;;8.30;99.90;;;;;;5055151;28;20038;-64
2024/01/01 07:08:12;;;;;;;2.42;0.77;;;8.40;99.90;;;;;;5054906;28;20045;-63
2024/01/01 07:10:37;;;;;;;7.03;0.98;;;8.40;99.90;;;;;;5054889;28;20047;-64
2024/01/01 07:13:03;;;;;;;5.95;1.17;;;8.30;99.90;;;;;;5054904;28;20033;-63
2024/01/01 07:15:29;;;;;;;3.85;1.05;;;8.40;99.90;;;;;;5054895;28;20025;-64
2024/01/01 07:17:54;;;;;;;3.55;0.70;;;8.40;99.90;;;;;;5053919;28;20029;-64
2024/01/01 07:20:20;;;;;;;4.47;0.93;;;8.40;99.90;;;;;;5054672;28;20460;-63
2024/01/01 07:22:46;;;;;;;7.55;1.38;;;8.40;99.90;;;;;;5054743;28;20033;-64
2024/01/01 07:25:12;;;;;;;5.45;0.93;;;8.30;99.90;;;;;;5054681;28;20026;-64
2024/01/01 07:27:39;;;;;;;7.63;1.05;;;8.30;99.90;;;;;;5054430;28;20087;-63
2024/01/01 07:30:06;;;;;;;5.07;0.80;;;8.30;99.90;;;;;;5054642;28;20029;-64
2024/01/01 07:32:31;;;;;;;7.13;1.40;;;8.30;99.90;;;;;;5054222;28;20049;-63
2024/01/01 07:34:57;;;;;;;5.28;1.00;;;8.20;99.90;;;;;;5054485;28;20036;-63
2024/01/01 07:37:23;;;;;;;6.80;1.13;;;8.20;99.90;;;;;;5054485;28;20032;-64
2024/01/01 07:39:50;;;;;;;4.30;0.77;;;8.10;99.90;;;;;;5054307;28;20036;-65
2024/01/01 07:42:15;;;;;;;5.72;1.35;;;8.20;99.90;;;;;;5054334;28;20014;-64
2024/01/01 07:44:41;;;;;;;6.97;1.25;;;8.20;99.90;;;;;;5054316;28;20018;-64
2024/01/01 07:47:08;;;;;;;3.17;0.88;;;8.20;99.90;;;;;;5053204;28;20029;-64
2024/01/01 07:49:34;;;;;;;7.72;0.98;;;8.20;99.90;;;;;;5054172;28;20095;-63
2024/01/01 07:52:01;;;;;;;7.28;1.10;;;8.20;99.90;;;;;;5054158;28;20033;-64
2024/01/01 07:54:27;;;;;;;4.63;1.48;;;8.20;99.90;;;;;;5054035;28;20017;-63
2024/01/01 07:56:53;;;;;;;3.60;0.73;;;8.20;99.90;;;;;;5054120;28;20041;-65
2024/01/01 07:59:18;;;;;;;4.63;1.02;;;8.10;99.90;;;;;;5053978;28;20029;-64
2024/01/01 08:01:44;;;;;;;7.03;1.30;;;8.10;99.90;;;;;;5053829;28;20112;-64
2024/01/01 08:04:10;;;;;;;5.07;1.05;;;8.10;99.90;;;;;;5053078;28;20150;-64
2024/01/01 08:06:36;;;;;;;3.85;1.15;;;8.10;99.90;;;;;;5053853;28;20598;-63
2024/01/01 08:09:02;;;;;;;4.15;1.10;;;8.10;99.90;;;;;;5053685;28;20030;-64
2024/01/01 08:11:27;;;;;;;7.18;1.42;;;8.20;99.90;;;;;;5052827;28;20155;-63
2024/01/01 08:13:53;;;;;;;3.75;1.33;;;8.20;99.90;;;;;;5053720;28;20094;-63
2024/01/01 08:16:19;;;;;;;9.38;1.45;;;8.20;99.90;;;;;;5053374;28;20038;-64
2024/01/01 08:18:47;;;;;;;7.97;1.33;;;8.30;99.90;;;;;;5053665;28;20030;-64
2024/01/01 08:21:13;;;;;;;7.28;2.30;;;8.20;99.90;;;;;;5053541;28;20091;-63
2024/01/01 08:23:38;;;;;;;6.18;1.75;;;8.30;99.90;;;;;;5053532;28;20033;-63
2024/01/01 08:26:07;;;;;;;4.78;1.27;;;8.30;99.90;;;;;;5053362;28;20032;-64
2024/01/01 08:28:33;;;;;;;7.03;1.60;;;8.30;99.90;;;;;;5053312;28;20030;-64
2024/01/01 08:31:00;;;;;;;5.22;1.27;;;8.30;99.90;;;;;;5053031;28;20028;-63
2024/01/01 08:33:25;;;;;;;9.10;1.08;;;8.30;99.90;;;;;;5053447;28;20033;-65
2024/01/01 08:35:55;;;;;;;3.03;1.30;;;8.30;99.90;;;;;;5053394;28;20022;-65
2024/01/01 08:38:21;;;;;;;4.47;0.90;;;8.40;99.90;;;;;;5053277;28;20089;-64
2024/01/01 08:40:47;;;;;;;1.88;0.95;;;8.40;99.90;;;;;;5052235;28;20040;-65
2024/01/01 08:43:13;;;;;;;5.30;1.02;;;8.40;99.90;;;;;;5053276;28;20033;-65
2024/01/01 08:45:39;;;;;;;4.82;1.70;;;8.40;99.90;;;;;;5053115;28;20037;-64
2024/01/01 08:48:05;;;;;;;7.05;1.10;;;8.40;99.90;;;;;;5052970;28;20029;-64
2024/01/01 08:50:31;;;;;;;7.90;1.30;;;8.40;99.90;;;;;;5053027;28;20041;-64
2024/01/01 08:52:56;;;;;;;7.43;1.63;;;8.50;99.90;;;;;;5052889;28;20037;-65
2024/01/01 08:55:22;;;;;;;8.02;1.55;;;8.40;99.90;;;;;;5052782;28;20026;-64
2024/01/01 08:57:47;;;;;;;7.18;1.42;;;8.40;99.90;;;;;;5052841;28;20038;-64
2024/01/01 09:00:16;;;;;;;5.13;1.40;;;8.40;99.90;;;;;;5052842;28;20032;-64
2024/01/01 09:02:42;;;;;;;7.38;1.75;;;8.40;99.90;;;;;;5052697;28;20017;-64
2024/01/01 09:05:08;;;;;;;3.25;1.33;;;8.40;99.90;;;;;;5052735;28;20036;-65
2024/01/01 09:07:33;;;;;;;7.97;1.95;;;8.50;99.90;;;;;;5052622;28;20204;-63
2024/01/01 09:10:01;;;;;;;5.38;1.25;;;8.50;99.90;;;;;;5052740;28;20030;-64
2024/01/01 09:12:29;;;;;;;5.38;1.42;;;8.60;99.90;;;;;;5052588;28;20022;-64
2024/01/01 09:14:55;;;;;;;4.00;1.50;;;8.60;99.90;;;;;;5051666;28;20041;-65
2024/01/01 09:17:20;;;;;;;5.50;1.40;;;8.60;99.90;;;;;;5052636;28;20017;-64
2024/01/01 09:19:46;;;;;;;6.28;1.35;;;8.70;99.90;;;;;;5052494;28;20188;-65
2024/01/01 09:22:12;;;;;;;6.45;1.50;;;8.70;99.90;;;;;;5052477;28;20029;-64
2024/01/01 09:24:38;;;;;;;2.83;0.93;;;8.70;99.90;;;;;;5052447;28;20069;-63
2024/01/01 09:27:03;;;;;;;7.97;1.35;;;8.80;99.90;;;;;;5051569;28;20036;-63
2024/01/01 09:29:29;;;;;;;7.40;2.53;;;8.80;99.90;;;;;;5052218;28;20038;-64
2024/01/01 09:31:55;;;;;;;6.20;1.55;;;8.80;99.90;;;;;;5052047;28;20045;-64
2024/01/01 09:34:21;;;;;;;5.40;2.30;;;8.80;99.90;;;;;;5052396;28;20029;-64
2024/01/01 09:36:46;;;;;;;8.60;1.70;;;8.70;99.90;;;;;;5052288;28;20029;-63
2024/01/01 09:39:12;;;;;;;5.45;1.50;;;8.70;99.90;;;;;;5052355;28;20034;-64
2024/01/01 09:41:38;;;;;;;7.80;1.50;;;8.70;99.90;;;;;;5052242;28;20053;-64
2024/01/01 09:44:03;;;;;;;9.95;1.77;;;8.80;99.90;;;;;;5052234;28;20048;-65
2024/01/01 09:46:33;;;;;;;10.18;2.20;;;8.80;99.90;;;;;;5052170;28;20033;-64
2024/01/01 09:49:02;;;;;;;6.40;1.45;;;8.80;99.90;;;;;;5051979;28;20034;-63
2024/01/01 09:51:28;;;;;;;5.50;1.38;;;8.80;99.90;;;;;;5052206;28;20085;-64
2024/01/01 09:53:53;;;;;;;8.13;2.13;;;8.80;99.90;;;;;;5074628;28;20164;-64
2024/01/01 09:56:20;;;;;;;8.57;1.70;;;8.80;99.90;;;;;;5092085;28;20037;-65
2024/01/01 09:58:46;;;;;;;4.22;1.58;;;8.80;99.90;;;;;;5092010;28;20025;-65
2024/01/01 10:01:19;;;;;;;4.07;1.45;;;8.70;99.90;;;;;;5092019;28;20122;-63
2024/01/01 10:04:07;;;;;;;7.43;2.10;;;8.70;99.90;;;;;;5092002;28;20025;-65
2024/01/01 10:06:36;;;;;;;6.95;1.73;;;8.70;99.90;;;;;;5092150;28;20017;-63
2024/01/01 10:09:09;;;;;;;4.43;1.42;;;8.60;99.90;;;;;;5092019;28;20025;-63
2024/01/01 10:11:38;;;;;;;7.90;1.50;;;8.60;99.90;;;;;;5092057;28;20033;-63
2024/01/01 10:14:05;;;;;;;3.35;1.40;;;8.60;99.90;;;;;;5092046;28;20080;-64
2024/01/01 10:16:31;;;;;;;5.22;1.17;;;8.70;99.90;;;;;;5092159;28;20311;-64
2024/01/01 10:18:58;;;;;;;2.90;1.00;;;8.70;99.90;;;;;;5090975;28;20021;-64
2024/01/01 10:21:31;;;;;;;4.22;1.35;;;8.80;99.90;;;;;;5091879;28;20039;-63
2024/01/01 10:23:58;;;;;;;2.95;1.27;;;8.80;99.90;;;;;;5080035;28;20041;-64
2024/01/01 10:26:24;;;;;;;2.20;1.10;;;8.90;99.90;;;;;;5071634;28;20044;-64
2024/01/01 10:28:50;;;;;;;3.95;1.42;;;8.90;99.90;;;;;;5071493;28;20059;-64
2024/01/01 10:31:15;;;;;;;6.32;1.42;;;9.00;99.90;;;;;;5071474;28;20041;-64
2024/01/01 10:33:42;;;;;;;2.95;1.02;;;9.10;99.90;;;;;;5071724;28;20380;-63
2024/01/01 10:36:08;;;;;;;8.05;2.03;;;9.10;99.90;;;;;;5071702;28;20059;-63
2024/01/01 10:38:36;;;;;;;9.05;1.42;;;9.10;99.90;;;;;;5073704;28;20049;-65
2024/01/01 10:41:03;;;;;;;6.63;1.90;;;9.10;99.90;;;;;;5075632;28;20036;-63
2024/01/01 10:43:29;;;;;;;4.80;1.50;;;9.10;99.90;;;;;;5073783;28;20033;-63
2024/01/01 10:46:06;;;;;;;5.22;1.27;;;9.10;99.90;;;;;;5060927;28;20045;-63
2024/01/01 10:48:32;;;;;;;4.00;1.33;;;9.10;99.90;;;;;;5055380;28;20025;-64
2024/01/01 10:51:24;;;;;;;4.38;1.05;;;9.10;99.90;;;;;;5082094;28;20017;-63
2024/01/01 10:54:08;;;;;;;6.82;1.60;;;9.10;99.90;;;;;;5095266;28;20017;-63
2024/01/01 10:56:33;;;;;;;8.93;1.30;;;9.00;99.90;;;;;;5095317;28;20024;-63
2024/01/01 10:59:18;;;;;;;6.70;1.30;;;8.80;99.90;;;;;;5095251;28;20387;-64
2024/01/01 11:01:45;;;;;;;4.57;1.20;;;8.70;99.90;;;;;;5095042;28;20031;-64
2024/01/01 11:04:15;;;;;;;6.18;1.58;;;8.70;99.90;;;;;;5095083;28;20029;-64
2024/01/01 11:06:44;;;;;;;6.47;1.90;;;8.60;99.90;;;;;;5094296;28;20020;-64
2024/01/01 11:09:19;;;;;;;9.75;1.85;;;8.70;99.90;;;;;;5075508;28;20033;-63
2024/01/01 11:11:52;;;;;;;5.82;1.98;;;8.70;99.90;;;;;;5062619;28;20033;-64
2024/01/01 11:14:26;;;;;;;6.10;1.65;;;8.70;99.90;;;;;;5054768;28;20053;-63
2024/01/01 11:16:53;;;;;;;7.13;1.70;;;8.70;99.90;;;;;;5054227;28;20033;-63
2024/01/01 11:19:41;;;;;;;6.93;1.63;;;8.80;99.90;;;;;;5070819;28;20029;-63
2024/01/01 11:22:31;;;;;;;5.95;1.33;;;8.80;99.90;;;;;;5094957;28;20092;-63
2024/01/01 11:25:00;;;;;;;9.20;1.90;;;8.80;99.90;;;;;;5094769;28;20028;-63
2024/01/01 11:27:27;;;;;;;7.78;2.08;;;8.80;99.90;;;;;;5094721;28;20052;-63
2024/01/01 11:29:53;;;;;;;8.55;1.92;;;8.90;99.90;;;;;;5094849;28;20578;-63
2024/01/01 11:32:20;;;;;;;19.17;1.77;;;9.00;99.90;;;;;;5094451;28;20044;-64
2024/01/01 11:35:08;;;;;;;8.55;1.60;;;9.00;99.90;;;;;;5094724;28;20020;-63
2024/01/01 11:37:34;;;;;;;5.30;2.17;;;9.10;99.90;;;;;;5094541;28;20268;-63
2024/01/01 11:40:02;;;;;;;5.72;1.30;;;9.10;99.90;;;;;;5094639;28;20021;-63
2024/01/01 11:42:28;;;;;;;5.93;1.58;;;9.20;99.90;;;;;;5094519;28;20017;-63
2024/01/01 11:45:17;;;;;;;8.52;1.90;;;9.20;99.90;;;;;;5094520;28;20020;-64
2024/01/01 11:47:44;;;;;;;4.32;2.03;;;9.30;99.90;;;;;;5094390;28;20097;-64
2024/01/01 11:50:11;;;;;;;8.85;2.50;;;9.30;99.90;;;;;;5093600;28;20025;-63
2024/01/01 11:52:37;;;;;;;8.63;1.70;;;9.30;99.90;;;;;;5094367;28;20060;-64
2024/01/01 11:55:03;;;;;;;8.32;1.90;;;9.40;99.90;;;;;;5094309;28;20021;-64
2024/01/01 11:57:29;;;;;;;10.05;3.83;;;9.40;99.90;;;;;;5093848;28;20020;-64
2024/01/01 11:59:56;;;;;;;11.63;3.67;;;9.40;99.90;;;;;;5092945;28;20020;-65
2024/01/01 12:02:22;;;;;;;11.90;3.28;;;9.30;99.90;;;;;;5093442;28;20020;-64
2024/01/01 12:04:51;;;;;;;11.35;3.30;;;9.30;99.90;;;;;;5093988;28;20066;-63
2024/01/01 12:07:32;;;;;;;7.82;3.17;;;9.30;99.90;;;;;;5094162;28;20031;-64
2024/01/01 12:10:11;;;;;;;11.07;3.30;;;9.30;99.90;;;;;;5094056;28;20024;-62
2024/01/01 12:12:39;;;;;;;9.95;2.95;;;9.30;99.90;;;;;;5093993;28;20025;-63
2024/01/01 12:15:15;;;;;;;10.55;2.05;;;9.30;99.90;;;;;;5093877;28;20020;-64
2024/01/01 12:17:42;;;;;;;11.43;2.38;;;9.30;99.90;;;;;;5093896;28;20029;-63
2024/01/01 12:20:09;;;;;;;6.00;1.67;;;9.30;99.90;;;;;;5093697;28;20028;-64
2024/01/01 12:22:35;;;;;;;12.57;1.70;;;9.30;99.90;;;;;;5093859;28;20020;-63
2024/01/01 12:25:01;;;;;;;6.63;2.08;;;9.30;99.90;;;;;;5093735;28;20035;-63
2024/01/01 12:27:26;;;;;;;6.20;2.03;;;9.30;99.90;;;;;;5093606;28;20025;-63
2024/01/01 12:29:56;;;;;;;10.85;3.45;;;9.40;99.90;;;;;;5093544;28;20028;-63
2024/01/01 12:32:22;;;;;;;8.93;2.15;;;9.40;99.90;;;;;;5093163;28;20045;-62
2024/01/01 12:34:49;;;;;;;9.95;3.00;;;9.50;99.90;;;;;;5093580;28;20466;-63
2024/01/01 12:37:15;;;;;;;15.70;2.72;;;9.50;99.90;;;;;;5093489;28;20047;-63
2024/01/01 12:39:40;;;;;;;10.57;2.28;;;9.60;99.90;;;;;;5093387;28;20390;-63
2024/01/01 12:42:06;;;;;;;15.70;2.88;;;9.70;99.90;;;;;;5073456;28;20039;-64
2024/01/01 12:44:33;;;;;;;9.93;2.60;;;9.70;99.90;;;;;;5072613;28;20033;-64
2024/01/01 12:46:59;;;;;;;9.52;2.60;;;9.70;99.90;;;;;;5073288;28;20048;-65
2024/01/01 12:49:25;;;;;;;12.52;3.20;;;9.70;99.90;;;;;;5072763;28;20021;-65
2024/01/01 12:51:50;;;;;;;8.77;1.83;;;9.70;99.90;;;;;;5073061;28;20029;-64